Terminal Aerodrome Forecast
Issued by NWS Goodland, KS

Home | Current Version | Previous Version | Text Only | Print | Product List | Glossary On
Versions: 1 2 3 4 5 6 7 8 9 10 11 12
000
FTUS43 KGLD 262320
TAFGLD
TAF
KGLD 262320Z 2700/2724 35011KT P6SM SKC
     FM270200 VRB03KT P6SM SKC
     FM270600 24007KT P6SM SKC=

USA.gov is the U.S. government's official web portal to all federal, state and local government web resources and services.